Orofino, ID

3:30 PM PDT on May 24, 2015 (GMT -0700)
ITD | | Change Station
CLOSE
Current Station
Personal Weather Station
Location: Weippe, ID
Elevation: 3111 ft
Nearby Weather Stations

Elev 3111 ft 46.38 °N, 116.13 °W | Updated 46 minutes ago

Partly Cloudy
Partly Cloudy
62 °F
Feels Like 62 °F
N
13
Wind Variable Wind from East
Gusts 16.0 mph

Today
High -- | Low -- °F
--% Chance of Precip.
Yesterday
High -- | Low -- °F
Precip. -- in
5:01 AM 8:21 PM
Waxing Crescent, 42% visible
Pressure 29.96 in
Visibility 10.0 miles
Clouds Scattered Clouds 4800 ft
Scattered Clouds 5500 ft
Dew Point 47 °F
Humidity 59%
Rainfall in
Snow Depth Not available.
UV 6 out of 12
Pollen 8.60 out of 12
Air Quality Not available.
Flu Activity Sporadic
METAR KGIC 242215Z AUTO 05007KT 030V110 10SM SCT048 SCT055 21/07 A2996 RMK AO1 T02130067

More Conditions Fewer Conditions

Pressure 29.96 in
Visibility 10.0 miles
Clouds Scattered Clouds 4800 ft
Scattered Clouds 5500 ft
Dew Point 47 °F
Humidity 59%
Rainfall in
Snow Depth Not available.
UV 6 out of 12
Pollen 8.60 out of 12
Air Quality Not available.
Flu Activity Sporadic
METAR KGIC 242215Z AUTO 05007KT 030V110 10SM SCT048 SCT055 21/07 A2996 RMK AO1 T02130067

More Conditions Fewer Conditions

10-Day Weather Forecast

Almanac

Astronomy

May. 24, 2015 Rise Set
Actual Time
Civil Twilight
Nautical Twilight
Astronomical Twilight
Moon
Length of Visible Light
Length of Day
Tomorrow will be .
, % of the Moon is Illuminated

Today's Extremes

State Highs State Lows

Community

WunderPhotos

Upload Photos

1,823,885 photos uploaded!

WunderBlogs® & News

Nearby

Air Quality

  Air Quality AQ Index Pollutant
Not available.

Snow Depth

Station Depth Elevation

Earthquake Activity

City Distance Mag. Time & Date
Minimum magnitude displayed is 2.5.

Coastal Water Temperatures

Place Temperature

Stations

Nearby Weather Stations

Station Location Temp. Windchill Dew Point Humidity Wind Precip. Elev Updated Type